Time;durP1;ratioP1;P1;durP2;ratioP2;P2;SDS_P1;SDS_P2;PMS_P1;PMS_P2;Temp;Humidity;BMP_temperature;BMP_pressure;BME280_temperature;BME280_humidity;BME280_pressure;Samples;Min_cycle;Max_cycle;Signal;HPM_P1;HPM_P2
2023/06/27 00:01:48;;;;;;;7.93;5.30;;;;;;;21.96;71.08;100531.66;5064202;28;20408;-71
2023/06/27 00:04:13;;;;;;;5.50;4.70;;;;;;;21.99;70.40;100528.56;5062364;28;20373;-71
2023/06/27 00:06:40;;;;;;;6.40;4.78;;;;;;;21.98;70.78;100524.28;5054231;28;20583;-71
2023/06/27 00:09:09;;;;;;;7.13;5.78;;;;;;;21.99;70.58;100517.97;5059780;28;20065;-71
2023/06/27 00:11:35;;;;;;;7.25;5.68;;;;;;;21.93;70.94;100528.63;5056900;28;20372;-70
2023/06/27 00:14:04;;;;;;;7.53;5.28;;;;;;;21.86;71.71;100526.03;5065269;28;20511;-71
2023/06/27 00:16:32;;;;;;;8.10;5.50;;;;;;;21.82;71.84;100515.03;5052953;28;20052;-71
2023/06/27 00:19:00;;;;;;;9.57;5.30;;;;;;;21.74;72.05;100527.78;5056224;28;20037;-71
2023/06/27 00:21:28;;;;;;;9.73;5.43;;;;;;;21.68;72.15;100515.38;5055372;28;20085;-70
2023/06/27 00:23:56;;;;;;;9.35;5.60;;;;;;;21.59;72.55;100511.38;5053371;28;20032;-71
2023/06/27 00:26:22;;;;;;;5.65;4.80;;;;;;;21.58;72.25;100510.56;5061006;28;20044;-70
2023/06/27 00:28:48;;;;;;;6.95;5.20;;;;;;;21.57;72.45;100508.13;5066275;28;20384;-70
2023/06/27 00:31:13;;;;;;;7.03;4.93;;;;;;;21.52;72.65;100509.56;5053790;28;20052;-71
2023/06/27 00:33:39;;;;;;;7.97;5.25;;;;;;;21.56;72.79;100511.78;5052676;28;20045;-70
2023/06/27 00:36:05;;;;;;;7.25;5.78;;;;;;;21.58;72.23;100510.56;5053398;28;20471;-70
2023/06/27 00:38:31;;;;;;;7.47;5.60;;;;;;;21.63;72.17;100512.56;5053093;28;20045;-71
2023/06/27 00:40:57;;;;;;;7.30;4.90;;;;;;;21.66;71.99;100507.63;5064448;28;20043;-71
2023/06/27 00:43:23;;;;;;;7.80;5.68;;;;;;;21.69;71.68;100517.00;5063961;28;20028;-71
2023/06/27 00:45:50;;;;;;;8.80;5.43;;;;;;;21.70;71.48;100510.69;5064386;28;20435;-70
2023/06/27 00:48:16;;;;;;;9.65;5.50;;;;;;;21.71;71.54;100512.31;5062220;28;20039;-71
2023/06/27 00:50:45;;;;;;;9.25;6.28;;;;;;;21.69;71.36;100506.41;5053579;28;20045;-70
2023/06/27 00:53:11;;;;;;;7.10;5.07;;;;;;;21.61;71.61;100504.00;5052927;28;20067;-71
2023/06/27 00:55:39;;;;;;;7.32;5.28;;;;;;;21.61;72.23;100501.34;5052864;28;20056;-71
2023/06/27 00:58:06;;;;;;;7.50;5.65;;;;;;;21.63;72.52;100502.78;5052821;28;20051;-71
2023/06/27 01:00:32;;;;;;;9.13;6.20;;;;;;;21.66;73.34;100501.53;5052198;28;20044;-71
2023/06/27 01:02:58;;;;;;;10.13;6.22;;;;;;;21.64;74.00;100503.56;5052839;28;20024;-71
2023/06/27 01:05:24;;;;;;;9.57;5.60;;;;;;;21.48;75.54;100504.91;5063985;28;20082;-72
2023/06/27 01:08:12;;;;;;;9.82;6.55;;;;;;;21.33;76.81;100507.03;5053619;28;20218;-71
2023/06/27 01:11:02;;;;;;;6.72;5.60;;;;;;;21.29;77.40;100509.31;5057384;28;20062;-70
2023/06/27 01:13:33;;;;;;;8.57;5.47;;;;;;;21.40;75.33;100503.31;5059122;28;20089;-70
2023/06/27 01:15:59;;;;;;;6.63;5.30;;;;;;;21.43;74.68;100500.25;5052494;28;20091;-71
2023/06/27 01:18:28;;;;;;;7.85;5.45;;;;;;;21.40;73.98;100507.81;5052530;28;20059;-70
2023/06/27 01:20:54;;;;;;;8.00;5.22;;;;;;;21.34;74.23;100506.81;5055331;28;20048;-73
2023/06/27 01:23:55;;;;;;;10.65;5.53;;;;;;;21.26;74.32;100499.16;5055491;28;20040;-70
2023/06/27 01:26:21;;;;;;;6.85;5.35;;;;;;;21.28;74.26;100509.53;5052164;28;20119;-70
2023/06/27 01:28:48;;;;;;;5.85;5.15;;;;;;;21.28;73.96;100504.22;5052307;28;20144;-72
2023/06/27 01:31:39;;;;;;;9.07;5.68;;;;;;;21.19;74.96;100506.31;5052327;28;20802;-73
2023/06/27 01:34:56;;;;;;;7.85;5.88;;;;;;;21.02;76.17;100505.97;5052428;28;20025;-70
2023/06/27 01:37:28;;;;;;;7.22;5.97;;;;;;;20.99;75.95;100505.59;5042604;28;20057;-71
2023/06/27 01:39:59;;;;;;;10.18;6.03;;;;;;;20.98;76.23;100499.47;5064405;28;20033;-71
2023/06/27 01:42:28;;;;;;;7.50;5.43;;;;;;;21.03;76.03;100501.50;5056201;28;20036;-73
2023/06/27 01:44:54;;;;;;;8.15;6.20;;;;;;;21.04;76.61;100501.28;5051679;28;20490;-72
2023/06/27 01:47:22;;;;;;;8.50;6.00;;;;;;;21.05;76.68;100494.16;5052118;28;20064;-73
2023/06/27 01:49:47;;;;;;;7.70;6.47;;;;;;;20.98;76.58;100496.84;5051100;28;20495;-73
2023/06/27 01:52:14;;;;;;;8.32;5.70;;;;;;;20.94;76.47;100497.47;5054363;28;20032;-73
2023/06/27 01:54:41;;;;;;;8.98;5.97;;;;;;;20.87;76.27;100482.41;5061327;28;20047;-72
2023/06/27 01:57:07;;;;;;;7.18;6.13;;;;;;;20.94;75.67;100482.38;5057740;28;20033;-73
2023/06/27 01:59:33;;;;;;;7.93;6.03;;;;;;;20.99;75.20;100473.81;5049951;28;20025;-72
2023/06/27 02:01:59;;;;;;;8.20;6.45;;;;;;;21.09;74.90;100482.09;5053729;28;20033;-73
2023/06/27 02:04:26;;;;;;;6.93;5.10;;;;;;;21.13;74.43;100481.47;5058955;28;20041;-72
2023/06/27 02:06:51;;;;;;;8.90;5.10;;;;;;;21.07;74.39;100481.50;5051803;28;20444;-73
2023/06/27 02:09:18;;;;;;;10.02;5.20;;;;;;;21.01;75.19;100485.00;5051216;28;20130;-73
2023/06/27 02:11:45;;;;;;;8.07;5.75;;;;;;;20.91;75.99;100476.69;5051521;28;20057;-72
2023/06/27 02:14:13;;;;;;;8.07;5.35;;;;;;;20.83;75.77;100475.91;5057522;28;20055;-72
2023/06/27 02:16:38;;;;;;;6.53;5.72;;;;;;;20.83;76.45;100470.63;5050775;28;20032;-74
2023/06/27 02:19:05;;;;;;;8.15;5.85;;;;;;;20.81;77.44;100480.59;5051673;28;20025;-73
2023/06/27 02:21:30;;;;;;;8.27;5.80;;;;;;;20.72;78.34;100467.84;5052298;28;20146;-73
2023/06/27 02:23:57;;;;;;;10.13;6.07;;;;;;;20.59;78.99;100474.00;5056571;28;20035;-73
2023/06/27 02:26:22;;;;;;;13.40;6.00;;;;;;;20.50;79.74;100476.06;5058407;28;20036;-73
2023/06/27 02:28:48;;;;;;;6.65;5.95;;;;;;;20.47;79.53;100478.31;5051519;28;20021;-74
2023/06/27 02:31:14;;;;;;;7.72;6.80;;;;;;;20.45;79.52;100483.81;5051269;28;20045;-73
2023/06/27 02:33:42;;;;;;;7.63;5.82;;;;;;;20.47;79.74;100483.59;5051402;28;20047;-73
2023/06/27 02:36:10;;;;;;;8.38;6.35;;;;;;;20.46;79.87;100479.34;5066062;28;20039;-73
2023/06/27 02:38:36;;;;;;;8.25;6.32;;;;;;;20.47;80.85;100483.59;5076664;28;20028;-74
2023/06/27 02:41:02;;;;;;;7.75;6.22;;;;;;;20.46;80.69;100476.69;5058179;28;20082;-73
2023/06/27 02:43:27;;;;;;;9.95;6.15;;;;;;;20.44;80.96;100476.09;5057501;28;20033;-72
2023/06/27 02:45:52;;;;;;;7.90;5.90;;;;;;;20.42;81.12;100473.63;5055313;28;20024;-72
2023/06/27 02:48:18;;;;;;;8.57;6.50;;;;;;;20.41;80.89;100471.19;5050865;28;20043;-72
2023/06/27 02:50:46;;;;;;;9.02;6.47;;;;;;;20.41;80.90;100465.91;5053146;28;20054;-72
2023/06/27 02:53:11;;;;;;;8.35;5.95;;;;;;;20.44;80.44;100470.78;5055283;28;20029;-72
2023/06/27 02:55:39;;;;;;;7.20;5.65;;;;;;;20.47;79.93;100470.38;5052956;28;20047;-72
2023/06/27 02:58:04;;;;;;;7.25;6.07;;;;;;;20.52;79.89;100473.22;5059475;28;20035;-72
2023/06/27 03:00:30;;;;;;;6.30;5.68;;;;;;;20.48;80.64;100472.81;5051153;28;20037;-72
2023/06/27 03:02:55;;;;;;;9.57;6.78;;;;;;;20.40;80.89;100472.22;5051366;28;20033;-72
2023/06/27 03:05:21;;;;;;;8.40;7.38;;;;;;;20.39;80.82;100473.25;5059223;28;20073;-72
2023/06/27 03:07:46;;;;;;;7.00;6.28;;;;;;;20.40;80.93;100475.69;5048929;28;20090;-73
2023/06/27 03:10:12;;;;;;;9.32;6.70;;;;;;;20.41;81.08;100477.31;5060415;28;20036;-73
2023/06/27 03:12:37;;;;;;;10.18;6.20;;;;;;;20.42;80.74;100475.47;5060312;28;20399;-73
2023/06/27 03:15:03;;;;;;;8.93;6.10;;;;;;;20.43;80.58;100480.56;5056876;28;20057;-73
2023/06/27 03:17:30;;;;;;;7.38;5.93;;;;;;;20.48;80.57;100479.94;5049975;28;20473;-72
2023/06/27 03:19:55;;;;;;;10.77;6.70;;;;;;;20.50;80.03;100469.97;5053036;28;20060;-73
2023/06/27 03:22:21;;;;;;;7.18;5.57;;;;;;;20.55;79.62;100472.78;5050284;28;20140;-73
2023/06/27 03:24:47;;;;;;;8.80;5.55;;;;;;;20.57;79.19;100476.03;5049966;28;20051;-72
2023/06/27 03:27:14;;;;;;;6.45;5.65;;;;;;;20.58;79.68;100474.22;5050462;28;20052;-72
2023/06/27 03:29:40;;;;;;;6.47;5.85;;;;;;;20.54;80.09;100476.47;5053363;28;20045;-72
2023/06/27 03:32:05;;;;;;;7.93;6.00;;;;;;;20.54;80.43;100477.28;5055361;28;20025;-73
2023/06/27 03:34:31;;;;;;;6.93;6.22;;;;;;;20.48;81.25;100487.88;5061827;28;20175;-73
2023/06/27 03:36:56;;;;;;;7.82;6.20;;;;;;;20.45;82.27;100491.75;5059424;28;20029;-74
2023/06/27 03:39:22;;;;;;;12.77;7.13;;;;;;;20.43;82.64;100485.03;5060661;28;20040;-73
2023/06/27 03:41:47;;;;;;;8.55;6.85;;;;;;;20.41;83.37;100477.31;5054489;28;20033;-73
2023/06/27 03:44:12;;;;;;;8.00;7.20;;;;;;;20.46;82.92;100479.34;5049212;28;20370;-72
2023/06/27 03:46:38;;;;;;;12.38;6.82;;;;;;;20.51;82.85;100474.22;5050420;28;20392;-73
2023/06/27 03:49:04;;;;;;;14.07;7.15;;;;;;;20.58;82.17;100461.78;5050293;28;20547;-73
2023/06/27 03:51:29;;;;;;;9.00;6.75;;;;;;;20.69;81.62;100466.44;5052888;28;20028;-72
2023/06/27 03:53:55;;;;;;;9.75;7.32;;;;;;;20.72;81.23;100468.66;5058321;28;20104;-72
2023/06/27 03:56:20;;;;;;;12.20;7.15;;;;;;;20.73;80.89;100467.63;5050266;28;20056;-72
2023/06/27 03:58:46;;;;;;;8.95;6.05;;;;;;;20.75;80.59;100470.88;5049951;28;20049;-73
2023/06/27 04:01:11;;;;;;;7.15;6.20;;;;;;;20.71;80.15;100467.03;5050135;28;20138;-73
2023/06/27 04:03:37;;;;;;;8.20;6.32;;;;;;;20.72;80.55;100468.66;5059735;28;20035;-73
2023/06/27 04:06:03;;;;;;;7.40;5.90;;;;;;;20.68;80.88;100462.16;5056296;28;20440;-72
2023/06/27 04:08:28;;;;;;;8.07;5.85;;;;;;;20.71;80.99;100459.09;5052325;28;20032;-72
2023/06/27 04:10:54;;;;;;;6.65;6.03;;;;;;;20.73;80.87;100459.69;5055083;28;20083;-73
2023/06/27 04:13:19;;;;;;;9.13;6.85;;;;;;;20.74;81.26;100466.63;5049874;28;20029;-73
2023/06/27 04:15:46;;;;;;;12.20;6.47;;;;;;;20.68;81.63;100464.81;5058460;28;20037;-72
2023/06/27 04:18:11;;;;;;;11.90;5.90;;;;;;;20.67;81.42;100463.19;5062298;28;20025;-72
2023/06/27 04:20:37;;;;;;;10.02;5.95;;;;;;;20.68;80.93;100467.44;5057325;28;20045;-72
2023/06/27 04:23:03;;;;;;;8.13;6.32;;;;;;;20.69;80.56;100458.50;5056592;28;20118;-74
2023/06/27 04:25:33;;;;;;;7.63;6.15;;;;;;;20.70;81.10;100465.41;5056969;28;20099;-72
2023/06/27 04:27:59;;;;;;;7.57;5.88;;;;;;;20.75;80.46;100462.94;5054444;28;20575;-72
2023/06/27 04:30:24;;;;;;;7.18;5.43;;;;;;;20.82;79.58;100468.19;5053610;28;20037;-72
2023/06/27 04:32:50;;;;;;;6.05;5.38;;;;;;;20.86;80.15;100469.38;5053072;28;20036;-73
2023/06/27 04:35:17;;;;;;;7.68;5.85;;;;;;;20.94;79.50;100468.31;5060501;28;20345;-73
2023/06/27 04:37:43;;;;;;;6.50;5.38;;;;;;;20.99;79.23;100473.81;5054362;28;20029;-73
2023/06/27 04:40:11;;;;;;;6.07;5.47;;;;;;;21.06;78.92;100477.22;5053468;28;20114;-72
2023/06/27 04:42:37;;;;;;;8.45;6.50;;;;;;;21.09;78.93;100474.16;5059037;28;20028;-72
2023/06/27 04:45:05;;;;;;;8.70;5.55;;;;;;;21.09;79.39;100471.50;5054515;28;20039;-72
2023/06/27 04:47:32;;;;;;;6.82;5.68;;;;;;;21.09;79.37;100479.47;5052467;28;20036;-72
2023/06/27 04:49:58;;;;;;;10.32;6.50;;;;;;;21.12;79.15;100484.34;5059457;28;20031;-73
2023/06/27 04:52:24;;;;;;;7.85;5.78;;;;;;;21.09;79.59;100482.09;5060779;28;20144;-73
2023/06/27 04:54:53;;;;;;;10.48;6.30;;;;;;;21.03;80.33;100475.81;5052990;28;20104;-71
2023/06/27 04:57:20;;;;;;;9.38;5.55;;;;;;;21.04;80.43;100476.63;5052833;28;20025;-73
2023/06/27 04:59:46;;;;;;;12.18;6.22;;;;;;;20.99;81.20;100468.50;5058395;28;20038;-72
2023/06/27 05:02:13;;;;;;;9.32;6.10;;;;;;;21.03;80.74;100478.47;5066381;28;20469;-72
2023/06/27 05:04:39;;;;;;;10.02;6.90;;;;;;;21.15;80.91;100473.31;5060357;28;20051;-72
2023/06/27 05:07:05;;;;;;;10.52;6.70;;;;;;;21.28;80.51;100467.94;5052758;28;20035;-72
2023/06/27 05:09:31;;;;;;;11.65;6.68;;;;;;;21.36;80.08;100469.50;5062765;28;20365;-73
2023/06/27 05:11:58;;;;;;;7.85;6.72;;;;;;;21.41;79.82;100469.69;5077730;28;20095;-72
2023/06/27 05:14:24;;;;;;;12.27;6.03;;;;;;;21.46;79.59;100470.66;5056137;28;20033;-72
2023/06/27 05:16:49;;;;;;;7.78;5.90;;;;;;;21.56;79.54;100470.19;5051939;28;20070;-72
2023/06/27 05:19:16;;;;;;;10.25;6.10;;;;;;;21.69;79.16;100464.78;5059505;28;20395;-72
2023/06/27 05:21:42;;;;;;;9.65;6.10;;;;;;;21.73;78.73;100467.81;5052967;28;20503;-71
2023/06/27 05:24:08;;;;;;;11.15;6.25;;;;;;;21.76;78.95;100464.69;5061551;28;20366;-72
2023/06/27 05:26:34;;;;;;;10.48;5.72;;;;;;;21.88;78.21;100462.97;5069105;28;20028;-73
2023/06/27 05:28:59;;;;;;;8.27;5.60;;;;;;;21.93;78.45;100457.81;5052161;28;20065;-73
2023/06/27 05:31:27;;;;;;;8.50;5.45;;;;;;;21.93;78.14;100465.78;5055821;28;20055;-72
2023/06/27 05:33:58;;;;;;;9.52;5.63;;;;;;;22.02;78.32;100469.00;5053230;28;20436;-73
2023/06/27 05:36:24;;;;;;;7.20;5.68;;;;;;;22.00;78.09;100471.84;5053078;28;20035;-72
2023/06/27 05:38:50;;;;;;;9.35;6.22;;;;;;;22.10;77.64;100466.88;5068004;28;20020;-72
2023/06/27 05:41:18;;;;;;;10.40;5.88;;;;;;;22.29;77.41;100474.81;5059257;28;20094;-73
2023/06/27 05:43:46;;;;;;;10.77;6.47;;;;;;;22.40;77.04;100472.25;5060065;28;20083;-72
2023/06/27 05:46:12;;;;;;;8.80;6.53;;;;;;;22.43;76.80;100471.81;5059855;28;20029;-73
2023/06/27 05:48:38;;;;;;;7.57;6.18;;;;;;;22.42;77.14;100472.84;5061136;28;20041;-73
2023/06/27 05:51:03;;;;;;;6.82;6.13;;;;;;;22.54;77.07;100470.25;5071490;28;20032;-72
2023/06/27 05:53:30;;;;;;;8.05;6.07;;;;;;;22.42;77.14;100472.03;5063756;28;20032;-73
2023/06/27 05:55:56;;;;;;;8.93;6.18;;;;;;;22.42;77.45;100470.19;5053362;28;20543;-72
2023/06/27 05:58:23;;;;;;;7.90;6.53;;;;;;;22.55;76.70;100463.91;5053492;28;20024;-72
2023/06/27 06:00:49;;;;;;;9.95;5.80;;;;;;;22.68;76.69;100463.75;5056844;28;20155;-73
2023/06/27 06:03:14;;;;;;;10.82;6.03;;;;;;;22.69;76.50;100460.03;5059806;28;20124;-72
2023/06/27 06:05:40;;;;;;;7.47;6.25;;;;;;;22.77;75.92;100458.91;5053815;28;20041;-73
2023/06/27 06:08:05;;;;;;;8.73;5.95;;;;;;;22.83;76.18;100456.22;5055355;28;20368;-67
2023/06/27 06:10:30;;;;;;;6.60;5.90;;;;;;;22.81;75.95;100457.47;5058541;28;20495;-67
2023/06/27 06:12:56;;;;;;;10.48;6.15;;;;;;;22.92;75.79;100454.06;5051688;28;20024;-67
2023/06/27 06:15:21;;;;;;;8.48;5.40;;;;;;;23.09;75.04;100459.56;5055272;28;20067;-68
2023/06/27 06:17:47;;;;;;;9.45;5.85;;;;;;;23.22;74.76;100454.00;5073301;28;20166;-68
2023/06/27 06:20:12;;;;;;;9.80;5.82;;;;;;;23.33;74.84;100442.59;5063498;28;20511;-68
2023/06/27 06:22:38;;;;;;;8.70;5.35;;;;;;;23.44;74.03;100444.47;5068167;28;20087;-68
2023/06/27 06:25:04;;;;;;;9.70;5.95;;;;;;;23.72;73.43;100451.81;5068870;28;20441;-67
2023/06/27 06:27:30;;;;;;;11.27;6.13;;;;;;;23.86;73.20;100449.72;5068877;28;20454;-67
2023/06/27 06:29:55;;;;;;;7.22;5.47;;;;;;;23.91;72.96;100447.19;5068624;28;20028;-68
2023/06/27 06:32:21;;;;;;;6.95;5.88;;;;;;;23.98;72.89;100447.06;5071080;28;20040;-68
2023/06/27 06:34:46;;;;;;;10.65;6.05;;;;;;;24.11;72.62;100446.78;5072421;28;20036;-68
2023/06/27 06:37:14;;;;;;;11.32;5.60;;;;;;;24.20;71.87;100448.06;5070668;28;20039;-67
2023/06/27 06:39:40;;;;;;;7.18;6.20;;;;;;;24.11;72.24;100452.13;5067900;28;20044;-68
2023/06/27 06:42:05;;;;;;;8.43;5.80;;;;;;;24.16;72.69;100450.38;5066049;28;20025;-69
2023/06/27 06:44:31;;;;;;;9.43;5.68;;;;;;;24.27;72.87;100458.63;5073861;28;20067;-68
2023/06/27 06:46:56;;;;;;;6.78;5.32;;;;;;;24.37;72.40;100464.16;5070704;28;20042;-68
2023/06/27 06:49:21;;;;;;;9.13;5.97;;;;;;;24.41;72.59;100467.97;5061218;28;20037;-68
2023/06/27 06:51:47;;;;;;;9.68;5.50;;;;;;;24.39;72.69;100456.75;5059072;28;20123;-68
2023/06/27 06:54:12;;;;;;;6.60;5.85;;;;;;;24.43;72.05;100455.22;5070426;28;20461;-67
2023/06/27 06:56:38;;;;;;;8.75;5.78;;;;;;;24.50;71.78;100455.09;5070662;28;20040;-68
2023/06/27 06:59:06;;;;;;;7.88;5.95;;;;;;;24.52;71.48;100461.00;5071374;28;20032;-68
2023/06/27 07:01:31;;;;;;;11.20;5.68;;;;;;;24.53;71.60;100466.09;5066667;28;20072;-68
2023/06/27 07:03:57;;;;;;;10.82;5.60;;;;;;;24.50;71.28;100468.41;5063912;28;20064;-68
2023/06/27 07:06:22;;;;;;;6.43;5.45;;;;;;;24.46;71.59;100468.06;5054166;28;20380;-67
2023/06/27 07:08:48;;;;;;;8.57;5.90;;;;;;;24.43;71.78;100465.88;5054307;28;20112;-68
2023/06/27 07:11:13;;;;;;;8.95;6.20;;;;;;;24.41;71.44;100471.44;5051508;28;20036;-68
2023/06/27 07:13:39;;;;;;;9.88;6.10;;;;;;;24.47;71.10;100472.34;5057789;28;20059;-67
2023/06/27 07:16:04;;;;;;;9.95;5.68;;;;;;;24.51;71.28;100470.84;5051061;28;20557;-67
2023/06/27 07:18:29;;;;;;;9.65;6.32;;;;;;;24.53;71.23;100476.75;5060245;28;20033;-68
2023/06/27 07:20:55;;;;;;;9.15;6.68;;;;;;;24.51;70.96;100473.50;5060994;28;20040;-67
2023/06/27 07:23:20;;;;;;;14.07;6.05;;;;;;;24.50;70.68;100461.25;5059908;28;20066;-67
2023/06/27 07:25:46;;;;;;;8.52;5.88;;;;;;;24.60;71.03;100466.75;5059930;28;20125;-68
2023/06/27 07:28:11;;;;;;;9.10;5.80;;;;;;;24.68;70.86;100458.38;5062458;28;20083;-67
2023/06/27 07:30:37;;;;;;;9.73;5.50;;;;;;;24.84;69.76;100464.81;5070602;28;20472;-68
2023/06/27 07:33:02;;;;;;;7.63;6.47;;;;;;;24.99;67.14;100467.78;5087519;28;20028;-68
2023/06/27 07:35:30;;;;;;;10.95;5.25;;;;;;;25.16;66.13;100465.13;5061771;28;20035;-67
2023/06/27 07:37:56;;;;;;;9.02;5.82;;;;;;;25.17;65.03;100458.75;5067715;28;20032;-68
2023/06/27 07:40:21;;;;;;;8.82;5.43;;;;;;;25.31;65.85;100456.59;5068271;28;20044;-68
2023/06/27 07:42:47;;;;;;;10.57;5.22;;;;;;;25.33;65.45;100452.63;5061452;28;20035;-68
2023/06/27 07:45:12;;;;;;;12.02;6.07;;;;;;;25.27;64.83;100450.13;5061417;28;20033;-70
2023/06/27 07:47:38;;;;;;;9.20;5.13;;;;;;;25.21;64.27;100446.56;5067655;28;20529;-69
2023/06/27 07:50:04;;;;;;;7.57;5.75;;;;;;;25.36;63.80;100446.00;5069125;28;20225;-68
2023/06/27 07:52:30;;;;;;;8.45;5.93;;;;;;;25.68;63.37;100441.75;5072306;28;20480;-68
2023/06/27 07:54:55;;;;;;;8.00;5.88;;;;;;;25.88;62.82;100446.56;5073768;28;20039;-68
2023/06/27 07:57:21;;;;;;;8.40;5.85;;;;;;;26.03;61.91;100444.09;5072166;28;20468;-65
2023/06/27 07:59:46;;;;;;;6.10;5.35;;;;;;;26.41;61.35;100445.16;5072934;28;20325;-68
2023/06/27 08:02:11;;;;;;;5.88;5.22;;;;;;;26.50;61.64;100448.97;5071504;28;20110;-68
2023/06/27 08:04:37;;;;;;;8.98;6.20;;;;;;;26.53;61.75;100453.81;5065267;28;20037;-68
2023/06/27 08:07:03;;;;;;;7.25;5.47;;;;;;;26.29;61.77;100447.09;5071812;28;20036;-67
2023/06/27 08:09:28;;;;;;;6.97;5.40;;;;;;;26.25;62.24;100456.66;5072269;28;20032;-67
2023/06/27 08:11:54;;;;;;;9.23;5.45;;;;;;;26.10;63.11;100454.59;5065306;28;20065;-68
2023/06/27 08:14:19;;;;;;;7.82;5.00;;;;;;;25.91;64.01;100451.41;5076320;28;20065;-68
2023/06/27 08:16:45;;;;;;;7.65;6.13;;;;;;;25.83;65.10;100449.16;5071083;28;20093;-65
2023/06/27 08:19:10;;;;;;;7.45;5.68;;;;;;;25.74;66.27;100450.63;5067677;28;20036;-66
2023/06/27 08:21:36;;;;;;;5.88;5.25;;;;;;;25.70;67.15;100449.50;5072230;28;20045;-67
2023/06/27 08:24:01;;;;;;;8.25;5.82;;;;;;;25.71;67.27;100440.44;5072109;28;20035;-65
2023/06/27 08:26:26;;;;;;;7.85;6.07;;;;;;;25.94;65.96;100440.25;5068050;28;20098;-68
2023/06/27 08:28:52;;;;;;;6.65;5.63;;;;;;;26.11;65.21;100434.84;5066074;28;20059;-67
2023/06/27 08:31:18;;;;;;;7.15;5.68;;;;;;;26.44;63.28;100429.44;5070955;28;20131;-67
2023/06/27 08:33:43;;;;;;;10.27;6.28;;;;;;;26.99;62.15;100427.59;5068586;28;20028;-67
2023/06/27 08:36:09;;;;;;;9.43;5.70;;;;;;;26.84;61.21;100424.75;5066865;28;20029;-66
2023/06/27 08:38:35;;;;;;;6.55;5.88;;;;;;;26.62;61.27;100428.28;5069988;28;20107;-66
2023/06/27 08:41:01;;;;;;;7.10;5.88;;;;;;;26.58;61.29;100429.84;5071283;28;20073;-67
2023/06/27 08:43:27;;;;;;;9.02;6.05;;;;;;;26.54;61.02;100433.25;5064787;28;20086;-66
2023/06/27 08:45:59;;;;;;;9.80;5.78;;;;;;;26.39;60.81;100433.91;5072673;28;20028;-66
2023/06/27 08:48:25;;;;;;;6.93;5.63;;;;;;;26.35;61.47;100436.25;5069592;28;20568;-67
2023/06/27 08:50:53;;;;;;;7.68;6.47;;;;;;;26.38;61.73;100425.09;5072628;28;20123;-67
2023/06/27 08:53:22;;;;;;;6.18;5.25;;;;;;;26.40;61.30;100422.16;5072623;28;20036;-66
2023/06/27 08:55:57;;;;;;;6.25;5.65;;;;;;;26.40;60.99;100422.97;5064657;28;20452;-67
2023/06/27 08:58:27;;;;;;;8.25;5.63;;;;;;;26.40;61.52;100414.16;5069935;28;20029;-66
2023/06/27 09:00:54;;;;;;;10.52;5.75;;;;;;;26.67;60.84;100409.63;5062562;28;20039;-66
2023/06/27 09:03:20;;;;;;;8.38;6.15;;;;;;;26.90;60.50;100413.88;5078743;28;20115;-66
2023/06/27 09:05:47;;;;;;;6.68;5.30;;;;;;;26.95;60.17;100410.41;5086619;28;20032;-66
2023/06/27 09:08:13;;;;;;;6.90;5.50;;;;;;;27.09;59.69;100420.47;5092857;28;20149;-66
2023/06/27 09:10:40;;;;;;;6.38;5.70;;;;;;;27.07;59.04;100416.44;5084383;28;20510;-66
2023/06/27 09:13:06;;;;;;;7.75;5.00;;;;;;;27.19;58.06;100414.41;5087126;28;20073;-67
2023/06/27 09:15:31;;;;;;;10.10;5.35;;;;;;;27.48;57.41;100412.19;5087979;28;20118;-66
2023/06/27 09:17:57;;;;;;;8.95;5.47;;;;;;;27.43;57.43;100410.28;5092690;28;20036;-67
2023/06/27 09:20:23;;;;;;;10.77;5.28;;;;;;;27.93;57.53;100416.25;5083035;28;20044;-66
2023/06/27 09:22:50;;;;;;;7.35;5.90;;;;;;;27.92;56.51;100410.06;5090123;28;20038;-66
2023/06/27 09:25:19;;;;;;;5.22;4.72;;;;;;;27.87;55.37;100406.59;5092450;28;20035;-66
2023/06/27 09:27:45;;;;;;;12.15;5.07;;;;;;;28.24;54.71;100399.28;5072070;28;21159;-66
2023/06/27 09:30:12;;;;;;;7.15;5.07;;;;;;;28.77;53.51;100405.31;5082585;28;20036;-66
2023/06/27 09:32:57;;;;;;;5.53;5.03;;;;;;;29.02;53.68;100399.97;5091695;28;20502;-67
2023/06/27 09:35:23;;;;;;;6.95;4.53;;;;;;;28.73;53.86;100397.00;5090573;28;20359;-66
2023/06/27 09:37:50;;;;;;;6.28;4.88;;;;;;;28.49;54.62;100395.06;5078063;28;20029;-66
2023/06/27 09:40:20;;;;;;;6.28;4.40;;;;;;;28.41;53.39;100397.16;5050236;28;20037;-66
2023/06/27 09:42:52;;;;;;;8.00;5.05;;;;;;;28.29;54.03;100396.63;5061245;28;20415;-65
2023/06/27 09:45:19;;;;;;;4.97;4.47;;;;;;;28.23;54.53;100391.50;5066093;28;20029;-66
2023/06/27 09:47:48;;;;;;;6.97;5.03;;;;;;;28.41;52.98;100393.69;5063939;28;20028;-66
2023/06/27 09:50:15;;;;;;;7.32;5.38;;;;;;;28.54;52.88;100387.84;5065781;28;20085;-66
2023/06/27 09:52:49;;;;;;;5.57;5.05;;;;;;;28.96;52.89;100390.31;5060411;28;20115;-66
2023/06/27 09:55:19;;;;;;;7.88;5.18;;;;;;;29.16;52.73;100378.78;5061331;28;20032;-66
2023/06/27 09:57:46;;;;;;;10.15;4.93;;;;;;;29.34;51.45;100380.91;5076500;28;20036;-65
2023/06/27 10:00:13;;;;;;;7.95;4.68;;;;;;;29.10;51.75;100379.88;5067572;28;20036;-66
2023/06/27 10:02:39;;;;;;;5.03;4.50;;;;;;;28.73;52.30;100386.25;5071266;28;20036;-67
2023/06/27 10:05:05;;;;;;;5.70;5.10;;;;;;;28.33;52.98;100386.19;5087751;28;20041;-67
2023/06/27 10:07:31;;;;;;;11.48;5.15;;;;;;;28.25;52.20;100387.50;5073182;28;20033;-66
2023/06/27 10:09:56;;;;;;;6.95;4.60;;;;;;;28.24;52.40;100387.75;5070044;28;20053;-66
2023/06/27 10:12:22;;;;;;;5.95;4.70;;;;;;;28.25;53.29;100386.69;5065684;28;20032;-67
2023/06/27 10:14:48;;;;;;;6.90;4.63;;;;;;;28.26;53.47;100381.06;5063935;28;20032;-66
2023/06/27 10:17:18;;;;;;;5.13;4.63;;;;;;;28.40;53.30;100386.72;5061437;28;20056;-66
2023/06/27 10:19:48;;;;;;;6.10;4.68;;;;;;;28.93;53.39;100387.38;5066660;28;20037;-66
2023/06/27 10:22:18;;;;;;;6.07;4.25;;;;;;;29.20;52.52;100374.50;5066550;28;20039;-66
2023/06/27 10:24:46;;;;;;;4.80;4.10;;;;;;;29.18;53.24;100384.69;5078417;28;20036;-67
2023/06/27 10:27:18;;;;;;;7.25;4.68;;;;;;;29.21;53.29;100388.72;5082779;28;20555;-66
2023/06/27 10:29:44;;;;;;;8.10;4.32;;;;;;;29.10;53.30;100382.56;5048331;28;20480;-67
2023/06/27 10:32:10;;;;;;;5.20;4.68;;;;;;;28.94;52.57;100380.94;5064767;28;20068;-66
2023/06/27 10:34:43;;;;;;;7.15;4.47;;;;;;;28.75;51.92;100375.28;5063394;28;20404;-67
2023/06/27 10:37:24;;;;;;;5.97;4.43;;;;;;;28.54;50.38;100370.94;5059974;28;20032;-67
2023/06/27 10:39:57;;;;;;;8.43;4.10;;;;;;;28.61;50.59;100366.94;5070102;28;20024;-66
2023/06/27 10:42:23;;;;;;;6.72;3.58;;;;;;;28.74;50.35;100360.25;5061381;28;20028;-66
2023/06/27 10:45:11;;;;;;;5.03;4.00;;;;;;;28.69;50.59;100369.09;5070220;28;20050;-66
2023/06/27 10:47:41;;;;;;;4.47;4.07;;;;;;;28.89;51.88;100362.16;5066179;28;20129;-66
2023/06/27 10:50:09;;;;;;;5.32;4.75;;;;;;;28.96;51.38;100352.78;5060647;28;20044;-66
2023/06/27 10:52:36;;;;;;;8.90;4.50;;;;;;;29.12;52.48;100355.47;5066950;28;20043;-66
2023/06/27 10:55:13;;;;;;;6.75;4.72;;;;;;;29.27;52.67;100352.75;5066664;28;20032;-66
2023/06/27 10:57:40;;;;;;;8.75;4.03;;;;;;;29.08;52.93;100347.16;5063141;28;20043;-67
2023/06/27 11:00:23;;;;;;;4.53;3.88;;;;;;;29.10;52.12;100336.94;5059445;28;20028;-66
2023/06/27 11:02:53;;;;;;;9.00;4.25;;;;;;;29.44;51.60;100341.75;5064560;28;20052;-66
2023/06/27 11:05:19;;;;;;;6.45;4.53;;;;;;;29.69;51.31;100333.63;5062380;28;20522;-66
2023/06/27 11:07:52;;;;;;;4.30;3.92;;;;;;;29.83;51.77;100336.50;5064778;28;20075;-67
2023/06/27 11:10:26;;;;;;;5.65;3.85;;;;;;;29.52;50.88;100330.44;5062501;28;20036;-67
2023/06/27 11:13:15;;;;;;;4.68;4.20;;;;;;;28.94;51.03;100322.75;5063984;28;20035;-66
2023/06/27 11:15:44;;;;;;;5.43;3.90;;;;;;;28.78;51.47;100318.44;5060371;28;20119;-67
2023/06/27 11:18:13;;;;;;;5.57;4.38;;;;;;;29.00;51.48;100315.50;5066325;28;20028;-66
2023/06/27 11:20:40;;;;;;;4.57;4.15;;;;;;;29.15;51.62;100312.81;5074763;28;20393;-66
2023/06/27 11:23:05;;;;;;;6.05;4.60;;;;;;;29.40;51.04;100312.72;5079870;28;20032;-66
2023/06/27 11:25:42;;;;;;;7.35;3.97;;;;;;;29.61;50.75;100297.41;5078258;28;20036;-67